Terminal Aerodrome Forecast
Issued by NWS Grand Forks, ND

Home | Current Version | Previous Version | Graphics & Text | Print | Product List | Glossary On
Versions: 1 2 3 4 5 6 7 8 9 10 11 12 13 14 15 16 17
000
FTUS43 KFGF 221733
TAFGFK
TAF
KGFK 221733Z 2218/2318 35017G23KT P6SM VCSH OVC035
     FM222000 34017G23KT P6SM OVC040
      TEMPO 2220/2223 4SM -SHRA OVC025
     FM222300 35017KT P6SM VCSH OVC035
     FM230200 35011KT P6SM VCSH OVC030
     FM230500 36010KT P6SM OVC015
     FM231500 01014KT P6SM OVC035
     FM231600 01014KT P6SM OVC030=

USA.gov is the U.S. government's official web portal to all federal, state and local government web resources and services.